Time;durP1;ratioP1;P1;durP2;ratioP2;P2;SDS_P1;SDS_P2;PMS_P1;PMS_P2;Temp;Humidity;BMP_temperature;BMP_pressure;BME280_temperature;BME280_humidity;BME280_pressure;Samples;Min_cycle;Max_cycle;Signal;HPM_P1;HPM_P2
2023/09/03 00:01:04;;;;;;;6.70;4.75;;;;;;;;;;10333803;28;20074;-65
2023/09/03 00:06:02;;;;;;;4.72;4.20;;;;;;;;;;10335517;28;20084;-65
2023/09/03 00:11:00;;;;;;;5.13;4.07;;;;;;;;;;10336173;28;20087;-65
2023/09/03 00:16:00;;;;;;;5.25;4.03;;;;;;;;;;10332558;28;20075;-65
2023/09/03 00:20:59;;;;;;;5.45;3.83;;;;;;;;;;10333816;28;20076;-65
2023/09/03 00:25:58;;;;;;;4.55;4.10;;;;;;;;;;10333415;28;20071;-64
2023/09/03 00:31:04;;;;;;;5.13;4.05;;;;;;;;;;10331997;28;20067;-64
2023/09/03 00:36:04;;;;;;;5.28;4.43;;;;;;;;;;10316189;28;20080;-65
2023/09/03 00:41:04;;;;;;;5.57;4.75;;;;;;;;;;10332862;28;20524;-64
2023/09/03 00:46:07;;;;;;;4.88;4.47;;;;;;;;;;10334382;28;20082;-64
2023/09/03 00:51:06;;;;;;;6.20;4.22;;;;;;;;;;10331481;28;20079;-64
2023/09/03 00:56:05;;;;;;;7.80;4.30;;;;;;;;;;10331181;28;20076;-65
2023/09/03 01:01:06;;;;;;;4.50;4.10;;;;;;;;;;10330360;28;20651;-65
2023/09/03 01:06:05;;;;;;;8.68;4.30;;;;;;;;;;10331070;28;20508;-65
2023/09/03 01:11:07;;;;;;;4.88;4.38;;;;;;;;;;10330794;28;20099;-64
2023/09/03 01:16:09;;;;;;;8.02;4.32;;;;;;;;;;10319711;28;20075;-63
2023/09/03 01:21:22;;;;;;;6.07;3.90;;;;;;;;;;10310841;28;20083;-64
2023/09/03 01:26:32;;;;;;;4.60;4.13;;;;;;;;;;10326279;28;20080;-64
2023/09/03 01:31:32;;;;;;;4.97;3.97;;;;;;;;;;10328911;28;20076;-65
2023/09/03 01:36:31;;;;;;;4.18;3.78;;;;;;;;;;10328843;28;20063;-65
2023/09/03 01:41:30;;;;;;;3.72;3.42;;;;;;;;;;10329541;28;20076;-64
2023/09/03 01:46:35;;;;;;;5.68;4.22;;;;;;;;;;10329275;28;20456;-65
2023/09/03 01:51:37;;;;;;;5.25;3.63;;;;;;;;;;10331396;28;20059;-66
2023/09/03 01:56:39;;;;;;;3.65;3.35;;;;;;;;;;10328909;28;20068;-64
2023/09/03 02:01:37;;;;;;;6.38;4.00;;;;;;;;;;10311125;28;20079;-64
2023/09/03 02:06:37;;;;;;;4.05;3.75;;;;;;;;;;10316475;28;20540;-64
2023/09/03 02:11:35;;;;;;;6.70;4.65;;;;;;;;;;10326426;28;20079;-63
2023/09/03 02:16:33;;;;;;;4.20;3.80;;;;;;;;;;10311620;28;20531;-64
2023/09/03 02:21:32;;;;;;;4.53;3.92;;;;;;;;;;10329341;28;20075;-65
2023/09/03 02:26:32;;;;;;;8.65;4.07;;;;;;;;;;10325203;28;20068;-64
2023/09/03 02:31:30;;;;;;;6.88;3.67;;;;;;;;;;10312358;28;20075;-65
2023/09/03 02:36:30;;;;;;;6.28;3.83;;;;;;;;;;10313198;28;20075;-65
2023/09/03 02:41:30;;;;;;;4.65;4.13;;;;;;;;;;10294528;28;20080;-64
2023/09/03 02:46:29;;;;;;;8.77;3.90;;;;;;;;;;10327386;28;20072;-65
2023/09/03 02:51:28;;;;;;;4.03;3.63;;;;;;;;;;10325193;28;20079;-65
2023/09/03 02:56:26;;;;;;;6.57;4.10;;;;;;;;;;10309480;28;20087;-66
2023/09/03 03:01:25;;;;;;;8.63;4.38;;;;;;;;;;10325051;28;20504;-66
2023/09/03 03:06:25;;;;;;;6.35;3.97;;;;;;;;;;10326231;28;20553;-65
2023/09/03 03:11:24;;;;;;;5.95;4.47;;;;;;;;;;10310410;28;20040;-65
2023/09/03 03:16:26;;;;;;;5.13;3.83;;;;;;;;;;10313721;28;20080;-64
2023/09/03 03:21:26;;;;;;;7.75;4.38;;;;;;;;;;10324962;28;20072;-65
2023/09/03 03:26:31;;;;;;;4.72;4.03;;;;;;;;;;10295953;28;20079;-64
2023/09/03 03:31:30;;;;;;;6.28;4.30;;;;;;;;;;10309677;28;20075;-64
2023/09/03 03:36:32;;;;;;;4.10;3.78;;;;;;;;;;10312956;28;20080;-64
2023/09/03 03:41:30;;;;;;;9.60;4.47;;;;;;;;;;10309737;28;20125;-65
2023/09/03 03:46:29;;;;;;;5.05;4.53;;;;;;;;;;10326001;28;20077;-64
2023/09/03 03:51:29;;;;;;;6.20;4.00;;;;;;;;;;10320358;28;20067;-65
2023/09/03 03:56:28;;;;;;;5.53;4.20;;;;;;;;;;10331404;28;20072;-65
2023/09/03 04:01:27;;;;;;;7.80;4.30;;;;;;;;;;10329014;28;20516;-64
2023/09/03 04:06:27;;;;;;;4.85;4.35;;;;;;;;;;10318935;28;20068;-64
2023/09/03 04:11:26;;;;;;;5.70;4.72;;;;;;;;;;10318103;28;20086;-64
2023/09/03 04:16:25;;;;;;;5.10;4.60;;;;;;;;;;10330898;28;20071;-64
2023/09/03 04:21:24;;;;;;;5.05;4.20;;;;;;;;;;10313307;28;20068;-64
2023/09/03 04:26:22;;;;;;;6.88;4.45;;;;;;;;;;10333583;28;20072;-65
2023/09/03 04:31:24;;;;;;;4.82;4.35;;;;;;;;;;10332129;28;20071;-64
2023/09/03 04:36:25;;;;;;;4.82;4.43;;;;;;;;;;10312418;28;20454;-64
2023/09/03 04:41:23;;;;;;;5.47;4.35;;;;;;;;;;10310817;28;20087;-64
2023/09/03 04:46:23;;;;;;;4.47;3.72;;;;;;;;;;10311862;28;20087;-64
2023/09/03 04:51:22;;;;;;;5.22;4.65;;;;;;;;;;10313936;28;20528;-65
2023/09/03 04:56:21;;;;;;;6.45;4.85;;;;;;;;;;10333348;28;20074;-65
2023/09/03 05:01:20;;;;;;;4.47;4.07;;;;;;;;;;10315195;28;20477;-64
2023/09/03 05:06:23;;;;;;;4.75;4.22;;;;;;;;;;10309520;28;20099;-65
2023/09/03 05:11:25;;;;;;;4.53;4.10;;;;;;;;;;10302587;28;20083;-65
2023/09/03 05:16:23;;;;;;;5.20;4.53;;;;;;;;;;10326254;28;20071;-65
2023/09/03 05:21:25;;;;;;;5.45;4.40;;;;;;;;;;10298342;28;20488;-64
2023/09/03 05:26:24;;;;;;;5.95;4.30;;;;;;;;;;10326255;28;20075;-64
2023/09/03 05:31:23;;;;;;;5.38;4.32;;;;;;;;;;10326333;28;20094;-65
2023/09/03 05:36:21;;;;;;;4.45;4.03;;;;;;;;;;10310619;28;20075;-64
2023/09/03 05:41:20;;;;;;;4.95;4.07;;;;;;;;;;10326472;28;20128;-65
2023/09/03 05:46:19;;;;;;;5.03;4.45;;;;;;;;;;10327465;28;20082;-65
2023/09/03 05:51:18;;;;;;;4.63;4.05;;;;;;;;;;10292772;28;20091;-64
2023/09/03 05:56:17;;;;;;;5.53;4.03;;;;;;;;;;10310160;28;20048;-65
2023/09/03 06:01:19;;;;;;;5.57;4.22;;;;;;;;;;10303721;28;20075;-64
2023/09/03 06:06:17;;;;;;;6.95;5.70;;;;;;;;;;10305976;28;20083;-65
2023/09/03 06:11:15;;;;;;;7.30;6.15;;;;;;;;;;10308993;28;20087;-65
2023/09/03 06:16:14;;;;;;;4.97;4.05;;;;;;;;;;10327715;28;20075;-64
2023/09/03 06:21:13;;;;;;;5.57;4.95;;;;;;;;;;10328223;28;20513;-64
2023/09/03 06:26:13;;;;;;;7.43;4.28;;;;;;;;;;10323520;28;20079;-65
2023/09/03 06:31:12;;;;;;;8.48;7.38;;;;;;;;;;10322260;28;20477;-64
2023/09/03 06:36:11;;;;;;;7.68;6.00;;;;;;;;;;10320393;28;20131;-65
2023/09/03 06:41:12;;;;;;;7.90;4.28;;;;;;;;;;10321406;28;20063;-65
2023/09/03 06:46:10;;;;;;;6.18;5.60;;;;;;;;;;10325850;28;20080;-64
2023/09/03 06:51:08;;;;;;;5.53;4.70;;;;;;;;;;10328236;28;20068;-65
2023/09/03 06:56:06;;;;;;;6.68;4.00;;;;;;;;;;10324665;28;20072;-65
2023/09/03 07:01:07;;;;;;;7.47;5.25;;;;;;;;;;10326364;28;20064;-65
2023/09/03 07:06:06;;;;;;;8.43;6.15;;;;;;;;;;10328766;28;20071;-64
2023/09/03 07:11:04;;;;;;;5.68;5.18;;;;;;;;;;10325876;28;20076;-64
2023/09/03 07:16:04;;;;;;;12.50;8.35;;;;;;;;;;10327834;28;20162;-64
2023/09/03 07:21:07;;;;;;;5.78;4.45;;;;;;;;;;10296418;28;20072;-64
2023/09/03 07:26:06;;;;;;;5.90;4.07;;;;;;;;;;10333218;28;20064;-66
2023/09/03 07:31:05;;;;;;;5.65;5.00;;;;;;;;;;10334484;28;20079;-67
2023/09/03 07:36:09;;;;;;;7.45;4.03;;;;;;;;;;10336229;28;20067;-66
2023/09/03 07:41:09;;;;;;;5.40;4.78;;;;;;;;;;10328196;28;20072;-66
2023/09/03 07:46:07;;;;;;;4.88;4.45;;;;;;;;;;10334232;28;20482;-65
2023/09/03 07:51:05;;;;;;;5.68;4.88;;;;;;;;;;10333353;28;20074;-65
2023/09/03 07:56:04;;;;;;;12.02;5.82;;;;;;;;;;10333197;28;20106;-64
2023/09/03 08:01:05;;;;;;;5.68;4.60;;;;;;;;;;10333750;28;20099;-64
2023/09/03 08:06:03;;;;;;;6.18;4.32;;;;;;;;;;10335033;28;20076;-65
2023/09/03 08:11:02;;;;;;;6.07;5.43;;;;;;;;;;10335866;28;20068;-65
2023/09/03 08:16:00;;;;;;;6.03;4.05;;;;;;;;;;10332825;28;20075;-65
2023/09/03 08:21:02;;;;;;;7.40;4.50;;;;;;;;;;10333390;28;20524;-65
2023/09/03 08:26:01;;;;;;;5.18;4.70;;;;;;;;;;10329914;28;20126;-65
2023/09/03 08:31:01;;;;;;;7.93;4.30;;;;;;;;;;10332698;28;20059;-65
2023/09/03 08:36:02;;;;;;;7.43;4.85;;;;;;;;;;10327378;28;20559;-65
2023/09/03 08:41:01;;;;;;;4.47;4.05;;;;;;;;;;10331701;28;20071;-65
2023/09/03 08:46:02;;;;;;;6.93;4.15;;;;;;;;;;10332179;28;20091;-64
2023/09/03 08:51:00;;;;;;;4.80;3.58;;;;;;;;;;10330308;28;20064;-66
2023/09/03 08:55:59;;;;;;;5.00;3.67;;;;;;;;;;10322018;28;20060;-66
2023/09/03 09:01:03;;;;;;;3.88;3.58;;;;;;;;;;10319712;28;20064;-66
2023/09/03 09:06:03;;;;;;;3.47;3.17;;;;;;;;;;10326315;28;20089;-65
2023/09/03 09:11:04;;;;;;;4.55;3.38;;;;;;;;;;10328631;28;20107;-67
2023/09/03 09:16:04;;;;;;;3.15;2.60;;;;;;;;;;10326403;28;20120;-67
2023/09/03 09:21:03;;;;;;;7.45;3.42;;;;;;;;;;10316401;28;20073;-65
2023/09/03 09:26:02;;;;;;;4.50;3.65;;;;;;;;;;10316185;28;20087;-66
2023/09/03 09:31:01;;;;;;;7.07;5.13;;;;;;;;;;10325706;28;20074;-66
2023/09/03 09:36:12;;;;;;;7.90;4.68;;;;;;;;;;10323414;28;20071;-68
2023/09/03 09:41:23;;;;;;;4.70;2.88;;;;;;;;;;10309030;28;20088;-66
2023/09/03 09:46:28;;;;;;;4.43;3.53;;;;;;;;;;10328266;28;20078;-66
2023/09/03 09:51:29;;;;;;;3.63;3.33;;;;;;;;;;10326903;28;20080;-66
2023/09/03 09:56:31;;;;;;;4.85;4.00;;;;;;;;;;10307896;28;20509;-66
2023/09/03 10:01:42;;;;;;;4.72;3.85;;;;;;;;;;10329979;28;20518;-67
2023/09/03 10:06:46;;;;;;;9.93;3.80;;;;;;;;;;10328429;28;20089;-66
2023/09/03 10:11:44;;;;;;;3.92;3.35;;;;;;;;;;10324686;28;20071;-66
2023/09/03 10:16:47;;;;;;;4.13;3.63;;;;;;;;;;10329027;28;20462;-65
2023/09/03 10:21:50;;;;;;;3.58;3.25;;;;;;;;;;10327352;28;20099;-66
2023/09/03 10:26:54;;;;;;;5.75;3.30;;;;;;;;;;10328447;28;20056;-66
2023/09/03 10:31:53;;;;;;;4.53;3.58;;;;;;;;;;10328059;28;20075;-66
2023/09/03 10:37:05;;;;;;;3.65;3.20;;;;;;;;;;10323273;28;20098;-65
2023/09/03 10:42:23;;;;;;;5.88;3.28;;;;;;;;;;10293088;28;20075;-65
2023/09/03 10:47:21;;;;;;;3.97;3.58;;;;;;;;;;10326127;28;20068;-65
2023/09/03 10:52:40;;;;;;;7.97;3.60;;;;;;;;;;10327537;28;20044;-65
2023/09/03 10:57:38;;;;;;;5.57;3.30;;;;;;;;;;10328214;28;20499;-66
2023/09/03 11:02:37;;;;;;;5.47;3.35;;;;;;;;;;10333606;28;20076;-65
2023/09/03 11:07:37;;;;;;;3.60;3.03;;;;;;;;;;10334952;28;20090;-65
2023/09/03 11:12:35;;;;;;;5.97;3.42;;;;;;;;;;10338158;28;20459;-65
2023/09/03 11:17:33;;;;;;;3.00;2.45;;;;;;;;;;10335386;28;20063;-66
2023/09/03 11:22:37;;;;;;;4.70;3.28;;;;;;;;;;10335907;28;20072;-66
2023/09/03 11:27:35;;;;;;;;;;;;;;;;;;10335334;28;20064;-67
2023/09/03 11:32:37;;;;;;;4.13;2.53;;;;;;;;;;10334622;28;20385;-66
2023/09/03 11:37:37;;;;;;;3.05;2.80;;;;;;;;;;10322054;28;20072;-66
2023/09/03 11:42:35;;;;;;;2.97;2.78;;;;;;;;;;10333783;28;20076;-66
2023/09/03 11:47:38;;;;;;;3.67;2.72;;;;;;;;;;10336213;28;20071;-66
2023/09/03 11:52:37;;;;;;;3.83;2.70;;;;;;;;;;10332008;28;20498;-66
2023/09/03 11:57:37;;;;;;;3.83;3.42;;;;;;;;;;10331132;28;20079;-66
2023/09/03 12:02:36;;;;;;;4.57;3.13;;;;;;;;;;10331458;28;20090;-66
2023/09/03 12:07:34;;;;;;;4.20;3.90;;;;;;;;;;10329161;28;20524;-65
2023/09/03 12:12:34;;;;;;;4.82;3.88;;;;;;;;;;10326205;28;20068;-65
2023/09/03 12:17:32;;;;;;;4.97;3.03;;;;;;;;;;10333155;28;20064;-65
2023/09/03 12:22:30;;;;;;;5.13;3.42;;;;;;;;;;10334989;28;20076;-65
2023/09/03 12:27:29;;;;;;;3.95;3.65;;;;;;;;;;10333248;28;20072;-65
2023/09/03 12:32:34;;;;;;;3.53;3.10;;;;;;;;;;10332019;28;20071;-66
2023/09/03 12:37:39;;;;;;;3.75;3.20;;;;;;;;;;10325884;28;20564;-66
2023/09/03 12:42:37;;;;;;;3.90;3.55;;;;;;;;;;10329427;28;20072;-66
2023/09/03 12:47:37;;;;;;;10.27;3.40;;;;;;;;;;10327489;28;20072;-66
2023/09/03 12:52:35;;;;;;;4.20;3.80;;;;;;;;;;10327814;28;20076;-66
2023/09/03 12:57:33;;;;;;;3.72;3.40;;;;;;;;;;10327929;28;20497;-66
2023/09/03 13:02:33;;;;;;;6.18;5.68;;;;;;;;;;10329788;28;20520;-66
2023/09/03 13:07:33;;;;;;;4.93;3.90;;;;;;;;;;10326628;28;20091;-66
2023/09/03 13:12:31;;;;;;;4.75;3.83;;;;;;;;;;10327642;28;20086;-66
2023/09/03 13:17:31;;;;;;;3.78;3.47;;;;;;;;;;10330194;28;20071;-66
2023/09/03 13:22:29;;;;;;;4.85;3.80;;;;;;;;;;10331451;28;20076;-67
2023/09/03 13:27:29;;;;;;;4.95;4.07;;;;;;;;;;10331329;28;20075;-66
2023/09/03 13:32:27;;;;;;;5.15;3.50;;;;;;;;;;10329855;28;20170;-65
2023/09/03 13:37:27;;;;;;;4.13;3.72;;;;;;;;;;10331871;28;20083;-66
2023/09/03 13:42:25;;;;;;;9.80;4.13;;;;;;;;;;10330876;28;20079;-66
2023/09/03 13:47:24;;;;;;;3.90;3.60;;;;;;;;;;10330089;28;20105;-65
2023/09/03 13:52:24;;;;;;;5.88;3.88;;;;;;;;;;10329858;28;20080;-65
2023/09/03 13:57:22;;;;;;;8.45;4.03;;;;;;;;;;10325335;28;20087;-65
2023/09/03 14:02:21;;;;;;;7.63;4.88;;;;;;;;;;10325869;28;20068;-65
2023/09/03 14:07:20;;;;;;;4.35;3.95;;;;;;;;;;10328927;28;20083;-65
2023/09/03 14:12:20;;;;;;;6.85;3.83;;;;;;;;;;10330172;28;20466;-66
2023/09/03 14:17:19;;;;;;;9.00;4.28;;;;;;;;;;10327012;28;20072;-65
2023/09/03 14:22:17;;;;;;;5.00;3.83;;;;;;;;;;10325914;28;20075;-66
2023/09/03 14:27:17;;;;;;;4.65;4.18;;;;;;;;;;10329524;28;20074;-66
2023/09/03 14:32:16;;;;;;;4.97;4.00;;;;;;;;;;10331303;28;20059;-66
2023/09/03 14:37:17;;;;;;;5.57;4.97;;;;;;;;;;10327470;28;20363;-67
2023/09/03 14:42:15;;;;;;;5.18;4.68;;;;;;;;;;10326857;28;20076;-66
2023/09/03 14:47:14;;;;;;;7.47;5.53;;;;;;;;;;10325079;28;20066;-65
2023/09/03 14:52:13;;;;;;;5.18;4.28;;;;;;;;;;10325677;28;20071;-65
2023/09/03 14:57:11;;;;;;;5.25;4.63;;;;;;;;;;10329851;28;20070;-66
2023/09/03 15:02:10;;;;;;;9.05;6.22;;;;;;;;;;10311470;28;20257;-66
2023/09/03 15:07:12;;;;;;;7.30;6.38;;;;;;;;;;10322025;28;20079;-66
2023/09/03 15:12:11;;;;;;;11.15;7.53;;;;;;;;;;10323669;28;20068;-65
2023/09/03 15:17:09;;;;;;;8.75;5.35;;;;;;;;;;10293980;28;20082;-66
2023/09/03 15:22:07;;;;;;;6.00;5.50;;;;;;;;;;10324110;28;20118;-66
2023/09/03 15:27:07;;;;;;;9.00;5.97;;;;;;;;;;10327454;28;20063;-68
2023/09/03 15:32:05;;;;;;;10.05;6.88;;;;;;;;;;10324727;28;20060;-66
2023/09/03 15:37:04;;;;;;;10.10;4.63;;;;;;;;;;10332944;28;20072;-66
2023/09/03 15:42:02;;;;;;;9.38;4.15;;;;;;;;;;10324894;28;20064;-67
2023/09/03 15:47:02;;;;;;;5.05;4.40;;;;;;;;;;10326872;28;20524;-66
2023/09/03 15:52:00;;;;;;;9.07;4.80;;;;;;;;;;10335847;28;20063;-65
2023/09/03 15:56:58;;;;;;;10.82;4.85;;;;;;;;;;10326670;28;20076;-65
2023/09/03 16:01:57;;;;;;;6.00;3.35;;;;;;;;;;10336383;28;20068;-67
2023/09/03 16:06:56;;;;;;;8.63;4.47;;;;;;;;;;10332823;28;20079;-64
2023/09/03 16:11:54;;;;;;;7.32;4.30;;;;;;;;;;10338008;28;20488;-67
2023/09/03 16:16:53;;;;;;;7.57;4.53;;;;;;;;;;10335846;28;20068;-68
2023/09/03 16:21:52;;;;;;;4.18;2.75;;;;;;;;;;10330863;28;20132;-66
2023/09/03 16:26:51;;;;;;;5.32;3.30;;;;;;;;;;10330997;28;20063;-67
2023/09/03 16:31:50;;;;;;;5.03;3.70;;;;;;;;;;10328690;28;20769;-68
2023/09/03 16:36:48;;;;;;;4.70;3.80;;;;;;;;;;10328849;28;20076;-67
2023/09/03 16:41:46;;;;;;;8.20;4.45;;;;;;;;;;10327360;28;20087;-67
2023/09/03 16:46:46;;;;;;;7.13;3.83;;;;;;;;;;10329434;28;20174;-67
2023/09/03 16:51:44;;;;;;;4.28;3.88;;;;;;;;;;10329804;28;20068;-68
2023/09/03 16:56:43;;;;;;;10.27;5.18;;;;;;;;;;10329273;28;20079;-69
2023/09/03 17:01:41;;;;;;;7.55;4.07;;;;;;;;;;10322307;28;20048;-69
2023/09/03 17:06:41;;;;;;;9.27;4.20;;;;;;;;;;10327511;28;20543;-72
2023/09/03 17:11:39;;;;;;;7.78;3.92;;;;;;;;;;10331138;28;20075;-72
2023/09/03 17:16:37;;;;;;;10.05;4.15;;;;;;;;;;10327590;28;20056;-73
2023/09/03 17:21:36;;;;;;;9.65;4.38;;;;;;;;;;10332242;28;20075;-71
2023/09/03 17:26:35;;;;;;;5.45;4.32;;;;;;;;;;10331337;28;20544;-71
2023/09/03 17:31:34;;;;;;;7.45;4.35;;;;;;;;;;10332363;28;20067;-71
2023/09/03 17:36:32;;;;;;;3.63;3.33;;;;;;;;;;10325607;28;20067;-71
2023/09/03 17:41:31;;;;;;;4.57;2.90;;;;;;;;;;10328071;28;20094;-70
2023/09/03 17:46:31;;;;;;;6.68;4.10;;;;;;;;;;10327650;28;20056;-72
2023/09/03 17:51:29;;;;;;;6.57;3.15;;;;;;;;;;10324632;28;20456;-72
2023/09/03 17:56:27;;;;;;;8.23;3.33;;;;;;;;;;10329120;28;20071;-72
2023/09/03 18:01:26;;;;;;;6.75;3.50;;;;;;;;;;10331816;28;20516;-72
2023/09/03 18:06:31;;;;;;;6.15;3.25;;;;;;;;;;10327352;28;20075;-71
2023/09/03 18:11:29;;;;;;;8.43;6.10;;;;;;;;;;10326875;28;20074;-71
2023/09/03 18:22:15;;;;;;;8.38;3.40;;;;;;;;;;10168416;28;20140;-71
2023/09/03 18:27:20;;;;;;;8.32;3.88;;;;;;;;;;10135286;28;20092;-71
2023/09/03 18:32:23;;;;;;;4.90;4.00;;;;;;;;;;10200928;28;20078;-72
2023/09/03 18:37:25;;;;;;;5.65;2.92;;;;;;;;;;10199425;28;20132;-70
2023/09/03 18:42:25;;;;;;;5.82;3.10;;;;;;;;;;10200944;28;20096;-71
2023/09/03 18:47:23;;;;;;;6.20;3.40;;;;;;;;;;10197352;28;20136;-69
2023/09/03 18:52:24;;;;;;;7.03;3.97;;;;;;;;;;10196517;28;20133;-71
2023/09/03 18:57:22;;;;;;;5.25;4.03;;;;;;;;;;10246339;28;20071;-72
2023/09/03 19:02:23;;;;;;;4.35;2.95;;;;;;;;;;10323373;28;20071;-70
2023/09/03 19:07:29;;;;;;;3.67;2.67;;;;;;;;;;10321260;28;20099;-71
2023/09/03 19:12:46;;;;;;;19.23;4.70;;;;;;;;;;10326024;28;20522;-70
2023/09/03 19:18:10;;;;;;;7.15;3.70;;;;;;;;;;10297506;28;20080;-69
2023/09/03 19:23:11;;;;;;;3.65;3.03;;;;;;;;;;10329404;28;20074;-67
2023/09/03 19:28:14;;;;;;;4.43;3.08;;;;;;;;;;10329036;28;20078;-67
2023/09/03 19:33:17;;;;;;;9.63;3.10;;;;;;;;;;10329860;28;20075;-69
2023/09/03 19:38:19;;;;;;;4.25;3.17;;;;;;;;;;10332443;28;20511;-69
2023/09/03 19:43:19;;;;;;;6.65;3.13;;;;;;;;;;10335827;28;20095;-69
2023/09/03 19:48:20;;;;;;;3.88;2.78;;;;;;;;;;10334779;28;20072;-67
2023/09/03 19:53:23;;;;;;;;;;;;;;;;;;10333999;28;20067;-69
2023/09/03 19:58:21;;;;;;;4.40;2.88;;;;;;;;;;10338927;28;19963;-69
2023/09/03 20:03:22;;;;;;;3.85;3.15;;;;;;;;;;10331939;28;20071;-68
2023/09/03 20:08:21;;;;;;;4.55;2.63;;;;;;;;;;10334252;28;20087;-68
2023/09/03 20:13:19;;;;;;;7.00;3.13;;;;;;;;;;10331002;28;20084;-67
2023/09/03 20:18:18;;;;;;;3.58;2.60;;;;;;;;;;10334329;28;20064;-68
2023/09/03 20:23:17;;;;;;;3.85;3.00;;;;;;;;;;10332564;28;20083;-68
2023/09/03 20:28:16;;;;;;;8.82;3.25;;;;;;;;;;10331358;28;20064;-68
2023/09/03 20:33:14;;;;;;;4.68;2.95;;;;;;;;;;10336087;28;20067;-67
2023/09/03 20:38:14;;;;;;;3.90;2.85;;;;;;;;;;10332487;28;20066;-68
2023/09/03 20:43:14;;;;;;;4.43;2.90;;;;;;;;;;10323973;28;20064;-67
2023/09/03 20:48:12;;;;;;;2.03;1.83;;;;;;;;;;10329336;28;20071;-68
2023/09/03 20:53:11;;;;;;;3.38;2.15;;;;;;;;;;10325516;28;20080;-67
2023/09/03 20:58:09;;;;;;;3.08;2.40;;;;;;;;;;10325356;28;20071;-68
2023/09/03 21:03:09;;;;;;;2.33;2.13;;;;;;;;;;10322195;28;20098;-67
2023/09/03 21:08:07;;;;;;;2.88;2.25;;;;;;;;;;10324869;28;20090;-68
2023/09/03 21:13:05;;;;;;;2.90;2.30;;;;;;;;;;10327536;28;20068;-67
2023/09/03 21:18:04;;;;;;;2.92;2.63;;;;;;;;;;10299480;28;20071;-68
2023/09/03 21:23:04;;;;;;;5.65;3.72;;;;;;;;;;10325941;28;20071;-68
2023/09/03 21:28:03;;;;;;;3.17;2.30;;;;;;;;;;10324235;28;20072;-69
2023/09/03 21:33:01;;;;;;;2.47;2.08;;;;;;;;;;10328547;28;20067;-68
2023/09/03 21:38:00;;;;;;;2.53;2.20;;;;;;;;;;10318103;28;20064;-69
2023/09/03 21:42:59;;;;;;;2.38;2.17;;;;;;;;;;10332216;28;20517;-68
2023/09/03 21:47:58;;;;;;;2.83;2.47;;;;;;;;;;10331351;28;20425;-67
2023/09/03 21:52:56;;;;;;;2.67;2.47;;;;;;;;;;10306847;28;20094;-68
2023/09/03 21:57:54;;;;;;;2.35;2.15;;;;;;;;;;10324366;28;20728;-69
2023/09/03 22:02:54;;;;;;;2.80;2.50;;;;;;;;;;10328917;28;20064;-69
2023/09/03 22:07:52;;;;;;;2.80;2.50;;;;;;;;;;10331204;28;20079;-69
2023/09/03 22:12:54;;;;;;;2.10;1.90;;;;;;;;;;10330065;28;20500;-69
2023/09/03 22:17:53;;;;;;;2.40;2.20;;;;;;;;;;10310416;28;20072;-69
2023/09/03 22:22:52;;;;;;;3.28;2.17;;;;;;;;;;10327120;28;20186;-68
2023/09/03 22:27:50;;;;;;;2.22;2.03;;;;;;;;;;10329786;28;20481;-69
2023/09/03 22:32:48;;;;;;;2.33;2.13;;;;;;;;;;10326514;28;20056;-69
2023/09/03 22:37:48;;;;;;;2.40;2.13;;;;;;;;;;10325661;28;20068;-68
2023/09/03 22:42:48;;;;;;;2.85;2.03;;;;;;;;;;10328017;28;20083;-69
2023/09/03 22:47:47;;;;;;;2.45;2.25;;;;;;;;;;10326684;28;20084;-68
2023/09/03 22:52:45;;;;;;;3.10;2.00;;;;;;;;;;10329878;28;20056;-68
2023/09/03 22:57:45;;;;;;;2.50;2.30;;;;;;;;;;10340650;28;20056;-68
2023/09/03 23:02:44;;;;;;;2.38;2.17;;;;;;;;;;10342180;28;20091;-69
2023/09/03 23:07:43;;;;;;;5.30;2.22;;;;;;;;;;10336940;28;20095;-69
2023/09/03 23:12:41;;;;;;;3.13;2.00;;;;;;;;;;10339300;28;20497;-69
2023/09/03 23:17:40;;;;;;;2.30;2.10;;;;;;;;;;10337810;28;20075;-69
2023/09/03 23:22:39;;;;;;;3.72;2.67;;;;;;;;;;10341185;28;20075;-69
2023/09/03 23:27:37;;;;;;;2.30;2.10;;;;;;;;;;10342423;28;20076;-69
2023/09/03 23:32:37;;;;;;;3.38;2.33;;;;;;;;;;10339968;28;20072;-69
2023/09/03 23:37:37;;;;;;;7.57;2.92;;;;;;;;;;10342090;28;20091;-69
2023/09/03 23:42:35;;;;;;;3.05;2.67;;;;;;;;;;10342278;28;20060;-69
2023/09/03 23:47:35;;;;;;;2.65;2.40;;;;;;;;;;10340700;28;20091;-69
2023/09/03 23:52:34;;;;;;;4.60;2.40;;;;;;;;;;10340464;28;20083;-69
2023/09/03 23:57:33;;;;;;;3.35;3.05;;;;;;;;;;10339913;28;20068;-69
